Time;durP1;ratioP1;P1;durP2;ratioP2;P2;SDS_P1;SDS_P2;PMS_P1;PMS_P2;Temp;Humidity;BMP_temperature;BMP_pressure;BME280_temperature;BME280_humidity;BME280_pressure;Samples;Min_cycle;Max_cycle;Signal;HPM_P1;HPM_P2
2023/11/28 00:02:01;;;;;;;6.45;4.85;;;3.20;99.90;;;3.48;76.86;98413.31;5024602;28;20608;-85
2023/11/28 00:04:29;;;;;;;6.53;5.13;;;3.20;99.90;;;3.35;76.82;98420.28;5006279;28;20042;-85
2023/11/28 00:06:58;;;;;;;7.05;4.80;;;3.10;99.90;;;3.35;77.38;98425.56;5006846;28;20049;-85
2023/11/28 00:09:26;;;;;;;6.07;4.32;;;3.10;99.90;;;3.25;77.19;98429.69;5006878;28;20050;-85
2023/11/28 00:11:54;;;;;;;7.40;4.70;;;3.10;99.90;;;3.18;77.45;98431.59;5025094;28;20050;-85
2023/11/28 00:14:22;;;;;;;7.57;4.80;;;3.00;99.90;;;3.26;77.94;98433.94;5018648;28;20073;-85
2023/11/28 00:16:50;;;;;;;6.10;4.60;;;3.00;99.90;;;3.34;77.86;98429.22;4971568;28;20046;-85
2023/11/28 00:19:17;;;;;;;6.90;5.10;;;3.10;99.90;;;3.41;77.79;98433.63;4986701;28;20042;-85
2023/11/28 00:21:45;;;;;;;5.35;4.38;;;3.20;99.90;;;3.27;76.79;98430.28;5022273;28;20054;-85
2023/11/28 00:24:15;;;;;;;5.32;4.05;;;3.10;99.90;;;3.11;77.87;98434.25;4977337;28;20037;-85
2023/11/28 00:26:43;;;;;;;5.65;4.45;;;3.00;99.90;;;2.96;78.17;98436.38;4998512;28;20053;-84
2023/11/28 00:29:10;;;;;;;6.63;4.70;;;2.80;99.90;;;3.04;78.98;98444.84;4992479;28;20049;-84
2023/11/28 00:31:39;;;;;;;5.90;4.72;;;2.90;99.90;;;3.12;78.61;98445.59;5009010;28;20042;-84
2023/11/28 00:34:07;;;;;;;5.93;4.40;;;3.00;99.90;;;3.14;78.74;98464.63;5007896;28;20050;-84
2023/11/28 00:36:35;;;;;;;5.32;4.05;;;2.90;99.90;;;3.01;78.22;98455.78;5008863;28;20532;-84
2023/11/28 00:39:04;;;;;;;6.32;4.30;;;2.90;99.90;;;3.02;78.68;98459.22;5008288;28;20050;-84
2023/11/28 00:41:36;;;;;;;5.00;4.00;;;2.90;99.90;;;3.08;79.02;98461.03;4993658;28;20039;-84
2023/11/28 00:44:04;;;;;;;5.30;4.03;;;2.90;99.90;;;3.01;78.37;98453.16;4993414;28;20054;-84
2023/11/28 00:46:31;;;;;;;5.93;4.25;;;2.90;99.90;;;2.99;78.95;98463.09;5000446;28;20129;-84
2023/11/28 00:48:59;;;;;;;5.65;3.83;;;2.90;99.90;;;3.15;79.32;98471.50;5009188;28;20042;-84
2023/11/28 00:51:26;;;;;;;6.57;4.50;;;3.00;99.90;;;3.16;78.30;98481.00;4993553;28;20049;-84
2023/11/28 00:53:54;;;;;;;5.60;3.95;;;3.00;99.90;;;3.04;79.03;98484.34;5008963;28;20057;-84
2023/11/28 00:56:22;;;;;;;5.32;4.00;;;3.00;99.90;;;3.10;79.25;98485.31;5026562;28;20069;-84
2023/11/28 00:58:51;;;;;;;5.00;3.88;;;2.90;99.90;;;3.08;78.56;98495.25;5027185;28;20049;-84
2023/11/28 01:01:19;;;;;;;4.95;3.60;;;2.90;99.90;;;3.03;79.17;98514.31;5010342;28;20042;-84
2023/11/28 01:03:47;;;;;;;5.93;3.47;;;2.90;99.90;;;2.93;78.58;98505.25;5010387;28;20053;-84
2023/11/28 01:06:17;;;;;;;4.65;3.30;;;2.80;99.90;;;2.92;78.98;98509.69;4988308;28;20042;-84
2023/11/28 01:08:44;;;;;;;6.23;3.43;;;2.80;99.90;;;2.91;79.27;98513.34;5009535;28;20056;-84
2023/11/28 01:11:13;;;;;;;5.13;3.00;;;2.80;99.90;;;2.97;79.30;98520.41;4998091;28;20445;-84
2023/11/28 01:13:40;;;;;;;3.80;2.70;;;2.80;99.90;;;3.06;79.44;98524.41;4989529;28;20101;-84
2023/11/28 01:16:11;;;;;;;4.25;2.85;;;2.90;99.90;;;3.09;79.27;98531.09;5025955;28;20069;-84
2023/11/28 01:18:39;;;;;;;4.38;2.75;;;3.00;99.90;;;3.12;78.72;98545.66;4993822;28;20046;-84
2023/11/28 01:21:09;;;;;;;4.03;2.67;;;3.00;99.90;;;3.11;78.60;98550.13;5024027;28;20027;-84
2023/11/28 01:23:38;;;;;;;4.00;2.38;;;2.90;99.90;;;2.98;78.26;98556.28;5027208;28;20061;-84
2023/11/28 01:26:07;;;;;;;4.15;2.63;;;2.90;99.90;;;2.88;78.61;98560.34;5010068;28;20484;-84
2023/11/28 01:28:34;;;;;;;4.55;2.70;;;2.80;99.90;;;2.99;79.42;98562.34;5010589;28;20132;-84
2023/11/28 01:31:02;;;;;;;3.90;2.65;;;2.90;99.90;;;3.02;79.14;98570.63;5022765;28;20038;-85
2023/11/28 01:33:30;;;;;;;3.30;2.28;;;2.90;99.90;;;3.03;79.52;98582.78;5025643;28;20532;-85
2023/11/28 01:35:58;;;;;;;3.97;2.40;;;2.90;99.90;;;3.13;79.40;98578.91;5026033;28;20050;-85
2023/11/28 01:38:26;;;;;;;3.25;2.20;;;3.00;99.90;;;3.06;78.57;98594.72;5006046;28;20049;-85
2023/11/28 01:40:54;;;;;;;3.95;2.50;;;2.90;99.90;;;3.09;78.98;98616.19;5010138;28;20053;-85
2023/11/28 01:43:25;;;;;;;6.28;2.80;;;3.00;99.90;;;3.07;78.85;98618.22;4989796;28;20050;-85
2023/11/28 01:45:53;;;;;;;3.67;2.55;;;2.90;99.90;;;3.06;78.91;98613.94;4986185;28;20069;-85
2023/11/28 01:48:22;;;;;;;3.90;2.33;;;3.10;99.90;;;3.06;79.05;98621.84;4974481;28;20532;-85
2023/11/28 01:50:52;;;;;;;3.47;2.55;;;2.90;99.90;;;3.11;79.14;98629.13;4973624;28;20485;-85
2023/11/28 01:53:22;;;;;;;3.53;2.40;;;2.90;99.90;;;3.17;78.82;98635.38;5000730;28;20045;-85
2023/11/28 01:55:52;;;;;;;4.43;2.60;;;3.00;99.90;;;3.19;78.93;98636.00;5012650;28;20053;-85
2023/11/28 01:58:20;;;;;;;3.28;2.33;;;3.10;99.90;;;3.09;78.38;98645.16;5003221;28;20049;-85
2023/11/28 02:00:49;;;;;;;3.90;2.65;;;3.00;99.90;;;3.14;78.25;98651.63;5008573;28;20042;-85
2023/11/28 02:03:19;;;;;;;3.80;2.45;;;3.00;99.90;;;3.10;78.67;98661.75;5005189;28;20042;-85
2023/11/28 02:05:46;;;;;;;4.03;2.63;;;3.00;99.90;;;3.05;78.44;98659.75;5009146;28;20109;-85
2023/11/28 02:08:15;;;;;;;4.15;2.70;;;2.90;99.90;;;3.12;78.62;98677.34;4998633;28;20494;-85
2023/11/28 02:10:43;;;;;;;4.47;3.10;;;2.90;99.90;;;3.04;78.41;98683.66;5000891;28;20517;-85
2023/11/28 02:13:11;;;;;;;4.55;3.00;;;2.90;99.90;;;3.04;78.80;98679.19;4983283;28;20049;-85
2023/11/28 02:15:41;;;;;;;4.35;3.20;;;2.90;99.90;;;3.06;78.57;98687.69;4974816;28;20053;-85
2023/11/28 02:18:10;;;;;;;5.68;3.88;;;2.90;99.90;;;3.07;78.43;98699.03;5000298;28;20045;-85
2023/11/28 02:20:38;;;;;;;4.53;3.33;;;2.90;99.90;;;2.85;78.61;98703.75;5001450;28;20041;-85
2023/11/28 02:23:06;;;;;;;4.50;3.50;;;2.70;99.90;;;2.83;79.05;98695.22;5000657;28;20053;-86
2023/11/28 02:25:41;;;;;;;4.93;3.50;;;2.70;99.90;;;2.79;78.60;98696.66;5019117;28;20077;-85
2023/11/28 02:28:10;;;;;;;4.65;3.38;;;2.70;99.90;;;2.84;79.20;98712.66;5014600;28;20070;-85
2023/11/28 02:30:37;;;;;;;5.18;3.50;;;2.80;99.90;;;2.94;78.99;98713.03;5016663;28;20054;-85
2023/11/28 02:33:05;;;;;;;5.85;3.88;;;2.80;99.90;;;2.99;79.16;98710.59;4984904;28;20476;-85
2023/11/28 02:35:33;;;;;;;6.40;4.20;;;2.90;99.90;;;3.00;78.43;98712.22;4968333;28;20050;-85
2023/11/28 02:38:00;;;;;;;5.03;3.80;;;2.90;99.90;;;2.95;78.36;98714.66;4982841;28;20034;-85
2023/11/28 02:40:28;;;;;;;5.32;4.25;;;2.80;99.90;;;2.90;78.75;98719.72;5000583;28;20042;-85
2023/11/28 02:42:57;;;;;;;6.00;4.20;;;2.80;99.90;;;2.84;78.39;98725.81;5000925;28;20137;-86
2023/11/28 02:45:26;;;;;;;5.78;4.57;;;2.80;99.90;;;2.69;78.23;98719.97;5004265;28;20069;-85
2023/11/28 02:47:53;;;;;;;6.05;4.50;;;2.70;99.90;;;2.64;78.82;98725.03;5001466;28;20049;-85
2023/11/28 02:50:21;;;;;;;5.70;4.45;;;2.60;99.90;;;2.74;79.19;98744.66;4984501;28;20039;-85
2023/11/28 02:52:48;;;;;;;6.15;4.78;;;2.70;99.90;;;2.83;79.25;98738.19;5018996;28;20046;-85
2023/11/28 02:55:17;;;;;;;6.38;4.60;;;2.70;99.90;;;2.81;78.25;98736.75;5000779;28;20049;-85
2023/11/28 02:57:46;;;;;;;6.85;5.20;;;2.70;99.90;;;2.70;78.28;98745.25;5000535;28;20042;-85
2023/11/28 03:00:14;;;;;;;5.88;4.90;;;2.60;99.90;;;2.67;78.58;98737.75;4985667;28;20050;-85
2023/11/28 03:02:44;;;;;;;6.20;5.10;;;2.60;99.90;;;2.67;78.40;98757.00;5019419;28;20042;-85
2023/11/28 03:05:12;;;;;;;7.50;5.93;;;2.60;99.90;;;2.66;78.45;98752.75;5002089;28;20132;-85
2023/11/28 03:07:40;;;;;;;8.32;6.22;;;2.60;99.90;;;2.61;78.82;98755.19;4988995;28;20042;-85
2023/11/28 03:10:08;;;;;;;9.55;6.72;;;2.60;99.90;;;2.69;79.82;98764.72;5007378;28;20073;-85
2023/11/28 03:12:36;;;;;;;7.20;5.68;;;2.60;99.90;;;2.71;78.80;98770.56;5006477;28;20472;-85
2023/11/28 03:15:06;;;;;;;7.70;5.90;;;2.70;99.90;;;2.62;78.60;98772.56;5011575;28;20039;-85
2023/11/28 03:17:33;;;;;;;7.40;6.18;;;2.60;99.90;;;2.64;79.00;98772.41;4970480;28;20046;-85
2023/11/28 03:20:04;;;;;;;8.30;7.05;;;2.60;99.90;;;2.70;79.45;98782.09;5023602;28;20076;-85
2023/11/28 03:22:31;;;;;;;8.43;6.10;;;2.60;99.90;;;2.65;78.68;98784.53;5005122;28;20060;-85
2023/11/28 03:25:08;;;;;;;8.05;6.40;;;2.60;99.90;;;2.63;78.86;98783.91;4989262;28;20142;-85
2023/11/28 03:27:36;;;;;;;8.15;6.55;;;2.60;99.90;;;2.64;78.42;98796.09;4979962;28;20038;-85
2023/11/28 03:30:04;;;;;;;8.63;6.85;;;2.60;99.90;;;2.67;78.69;98790.41;4988449;28;20567;-85
2023/11/28 03:32:31;;;;;;;8.10;6.85;;;2.60;99.90;;;2.72;78.74;98795.88;4990914;28;20050;-85
2023/11/28 03:35:02;;;;;;;8.65;6.97;;;2.70;99.90;;;2.63;78.60;98800.50;4988232;28;20049;-85
2023/11/28 03:37:29;;;;;;;10.13;7.82;;;2.60;99.90;;;2.76;79.06;98805.78;4989014;28;20089;-85
2023/11/28 03:39:57;;;;;;;9.82;7.80;;;2.70;99.90;;;2.77;78.76;98819.75;5005287;28;20038;-85
2023/11/28 03:42:24;;;;;;;8.63;6.85;;;2.70;99.90;;;2.81;78.74;98813.09;5004897;28;20057;-85
2023/11/28 03:44:52;;;;;;;9.25;6.93;;;2.80;99.90;;;2.80;78.63;98825.44;4988920;28;20092;-85
2023/11/28 03:47:21;;;;;;;9.85;7.25;;;2.70;99.90;;;2.72;77.70;98827.44;5023429;28;20067;-85
2023/11/28 03:50:02;;;;;;;8.60;6.80;;;2.60;99.90;;;2.64;77.71;98822.41;4990101;28;20046;-85
2023/11/28 03:52:30;;;;;;;8.48;6.75;;;2.60;99.90;;;2.79;78.69;98825.66;5019093;28;20053;-85
2023/11/28 03:54:58;;;;;;;8.80;7.30;;;2.70;99.90;;;2.84;78.23;98817.97;5023172;28;20064;-85
2023/11/28 03:57:26;;;;;;;9.10;7.35;;;2.70;99.90;;;2.87;78.49;98829.88;5005274;28;20049;-85
2023/11/28 03:59:55;;;;;;;9.38;7.40;;;2.70;99.90;;;2.83;78.34;98835.56;4988833;28;20535;-85
2023/11/28 04:02:22;;;;;;;10.30;8.13;;;2.70;99.90;;;2.89;78.66;98855.00;5002391;28;20113;-85
2023/11/28 04:04:50;;;;;;;9.60;7.85;;;2.80;99.90;;;2.80;78.10;98849.13;5020906;28;20038;-85
2023/11/28 04:07:19;;;;;;;11.35;8.07;;;2.70;99.90;;;2.78;78.13;98855.59;5004024;28;20501;-85
2023/11/28 04:09:46;;;;;;;10.52;8.10;;;2.70;99.90;;;2.78;77.90;98852.97;4988037;28;20576;-85
2023/11/28 04:12:14;;;;;;;11.00;8.77;;;2.70;99.90;;;2.88;78.60;98855.19;5004940;28;20046;-85
2023/11/28 04:14:42;;;;;;;10.32;8.60;;;2.70;99.90;;;2.90;78.30;98867.16;5001625;28;20046;-85
2023/11/28 04:17:09;;;;;;;10.43;8.23;;;2.80;99.90;;;2.85;77.91;98872.22;4983074;28;20069;-85
2023/11/28 04:19:37;;;;;;;10.75;8.90;;;2.70;99.90;;;2.78;77.50;98872.22;5004244;28;20034;-85
2023/11/28 04:22:05;;;;;;;9.15;7.72;;;2.70;99.90;;;2.73;77.59;98879.91;5004241;28;20148;-85
2023/11/28 04:24:34;;;;;;;11.13;8.73;;;2.70;99.90;;;2.76;77.83;98897.09;4988721;28;20046;-85
2023/11/28 04:27:04;;;;;;;10.02;8.20;;;2.60;99.90;;;2.81;77.71;98908.66;4988342;28;20081;-85
2023/11/28 04:29:32;;;;;;;10.43;7.60;;;2.70;99.90;;;2.79;77.29;98912.53;5004914;28;20038;-85
2023/11/28 04:32:01;;;;;;;10.57;8.35;;;2.70;99.90;;;2.79;77.53;98910.69;4988529;28;20037;-84
2023/11/28 04:34:29;;;;;;;10.27;8.02;;;2.70;99.90;;;2.78;77.59;98921.41;4987963;28;20037;-85
2023/11/28 04:36:58;;;;;;;13.43;9.25;;;2.70;99.90;;;2.73;77.57;98916.75;4954560;28;20053;-85
2023/11/28 04:39:25;;;;;;;12.43;9.30;;;2.60;99.90;;;2.71;77.27;98928.47;4985539;28;20058;-85
2023/11/28 04:42:00;;;;;;;12.00;8.25;;;2.60;99.90;;;2.73;77.99;98921.19;4982632;28;20042;-85
2023/11/28 04:44:27;;;;;;;11.63;8.32;;;2.60;99.90;;;2.79;77.72;98938.84;4989321;28;20054;-85
2023/11/28 04:46:55;;;;;;;10.10;8.00;;;2.70;99.90;;;2.70;76.15;98932.13;5005635;28;20044;-85
2023/11/28 04:49:23;;;;;;;10.68;8.45;;;2.60;99.90;;;2.67;77.10;98928.06;4994432;28;20042;-84
2023/11/28 04:51:51;;;;;;;11.23;8.02;;;2.60;99.90;;;2.77;77.63;98944.28;5003130;28;20092;-84
2023/11/28 04:54:20;;;;;;;11.57;9.10;;;2.70;99.90;;;2.85;77.31;98938.03;4999681;28;20076;-85
2023/11/28 04:56:48;;;;;;;11.38;8.48;;;2.70;99.90;;;2.91;77.09;98954.84;5003367;28;20066;-85
2023/11/28 04:59:17;;;;;;;12.13;8.30;;;2.80;99.90;;;2.78;76.49;98958.25;5022174;28;20096;-85
2023/11/28 05:01:47;;;;;;;10.35;8.18;;;2.70;99.90;;;2.81;76.69;98958.69;5021884;28;20061;-84
2023/11/28 05:04:15;;;;;;;11.88;8.25;;;2.70;99.90;;;2.85;76.78;98974.91;5003079;28;20057;-84
2023/11/28 05:06:43;;;;;;;11.30;8.27;;;2.70;99.90;;;2.79;76.09;98962.53;4987253;28;20513;-85
2023/11/28 05:09:11;;;;;;;11.20;7.47;;;2.70;99.90;;;2.76;76.05;98974.25;5004134;28;20521;-85
2023/11/28 05:11:41;;;;;;;10.90;7.22;;;2.70;99.90;;;2.71;76.19;98973.22;4987644;28;20056;-85
2023/11/28 05:14:08;;;;;;;10.27;7.07;;;2.60;99.90;;;2.77;76.52;98972.44;5010007;28;20042;-85
2023/11/28 05:16:38;;;;;;;9.55;6.88;;;2.70;99.90;;;2.75;76.07;98982.34;4970904;28;20521;-85
2023/11/28 05:19:07;;;;;;;9.88;6.55;;;2.70;99.90;;;2.80;76.54;98990.47;4988012;28;20042;-85
2023/11/28 05:21:37;;;;;;;11.30;7.22;;;2.70;99.90;;;2.90;76.53;98990.09;5004313;28;20045;-84
2023/11/28 05:24:05;;;;;;;12.18;7.55;;;2.70;99.90;;;2.86;75.06;98987.03;5002486;28;20068;-85
2023/11/28 05:26:33;;;;;;;11.13;6.95;;;2.70;99.90;;;2.88;75.79;98992.94;4987739;28;20069;-84
2023/11/28 05:28:59;;;;;;;11.65;7.47;;;2.70;99.90;;;2.96;76.04;98998.00;5001422;28;20039;-84
2023/11/28 05:31:27;;;;;;;11.52;8.00;;;2.80;99.90;;;3.06;76.11;98998.44;4984950;28;20114;-84
2023/11/28 05:33:56;;;;;;;11.02;8.35;;;2.90;99.90;;;3.08;75.85;99012.25;4998358;28;20039;-84
2023/11/28 05:36:26;;;;;;;16.08;8.98;;;2.90;99.90;;;3.11;76.15;99013.66;4968428;28;20065;-85
2023/11/28 05:38:53;;;;;;;13.95;9.10;;;2.90;99.90;;;3.05;74.99;99023.16;5002814;28;20092;-84
2023/11/28 05:41:23;;;;;;;13.25;8.95;;;2.90;99.90;;;2.97;75.03;99012.78;4991570;28;20092;-84
2023/11/28 05:43:52;;;;;;;15.48;9.23;;;2.80;99.90;;;3.02;75.82;99026.19;5007161;28;20052;-84
2023/11/28 05:46:20;;;;;;;14.70;9.52;;;2.80;99.90;;;2.92;75.96;99020.47;4990197;28;20041;-84
2023/11/28 05:48:48;;;;;;;15.00;9.82;;;2.80;99.90;;;2.93;74.96;99032.66;4990803;28;20539;-84
2023/11/28 05:51:18;;;;;;;14.55;10.02;;;2.90;99.90;;;2.94;75.13;99044.81;4989652;28;20509;-84
2023/11/28 05:53:46;;;;;;;12.55;9.05;;;2.80;99.90;;;2.96;75.37;99050.69;4986723;28;20056;-83
2023/11/28 05:56:13;;;;;;;15.00;9.93;;;2.80;99.90;;;2.93;74.88;99058.97;4991880;28;20041;-85
2023/11/28 05:58:42;;;;;;;15.32;9.45;;;2.80;99.90;;;2.87;74.49;99066.84;4998354;28;20052;-85
2023/11/28 06:01:14;;;;;;;14.25;9.40;;;2.70;99.90;;;2.77;74.84;99083.00;4982269;28;20391;-85
2023/11/28 06:03:42;;;;;;;16.20;9.65;;;2.70;99.90;;;2.73;74.98;99085.22;4999301;28;20092;-85
2023/11/28 06:06:11;;;;;;;15.80;9.57;;;2.70;99.90;;;2.85;75.66;99090.72;4998412;28;20100;-86
2023/11/28 06:08:41;;;;;;;13.27;9.30;;;2.70;99.90;;;2.88;75.51;99093.00;5004833;28;20038;-87
2023/11/28 06:11:11;;;;;;;12.80;8.55;;;2.70;99.90;;;2.80;74.20;99098.41;4986774;28;20069;-87
2023/11/28 06:13:39;;;;;;;12.57;7.60;;;2.70;99.90;;;2.65;73.45;99106.44;4998425;28;20046;-84
2023/11/28 06:16:07;;;;;;;11.73;7.60;;;2.60;99.90;;;2.64;73.45;99101.38;4998547;28;20506;-83
2023/11/28 06:18:37;;;;;;;12.93;7.88;;;2.50;99.90;;;2.74;74.07;99101.81;4996159;28;20449;-84
2023/11/28 06:21:09;;;;;;;12.52;7.18;;;2.60;99.90;;;2.70;73.43;99114.56;4993519;28;20045;-84
2023/11/28 06:23:37;;;;;;;13.13;6.88;;;2.60;99.90;;;2.73;73.40;99131.75;5007450;28;20050;-84
2023/11/28 06:26:07;;;;;;;10.77;7.18;;;2.60;99.90;;;2.72;72.52;99136.22;4979141;28;20113;-85
2023/11/28 06:28:36;;;;;;;13.90;7.20;;;2.60;99.90;;;2.75;72.23;99142.94;5004774;28;20478;-83
2023/11/28 06:31:04;;;;;;;10.98;6.70;;;2.60;99.90;;;2.73;72.54;99160.72;5015743;28;20042;-83
2023/11/28 06:33:32;;;;;;;10.70;6.13;;;2.60;99.90;;;2.66;70.60;99155.41;4996642;28;20068;-87
2023/11/28 06:36:00;;;;;;;10.65;6.53;;;2.50;99.90;;;2.71;71.74;99165.38;4996904;28;20489;-85
2023/11/28 06:38:27;;;;;;;10.05;6.35;;;2.50;99.90;;;2.74;72.12;99160.53;4979768;28;20049;-85
2023/11/28 06:40:55;;;;;;;9.50;5.75;;;2.70;99.90;;;2.63;70.74;99163.69;4998328;28;20054;-85
2023/11/28 06:43:27;;;;;;;8.52;5.78;;;2.60;99.90;;;2.63;71.88;99170.78;4999747;28;20104;-86
2023/11/28 06:45:59;;;;;;;9.32;6.07;;;2.50;99.90;;;2.69;71.96;99175.28;5017606;28;20046;-85
2023/11/28 06:48:27;;;;;;;;;;;2.50;99.90;;;2.66;71.71;99183.56;5017524;28;20046;-87
2023/11/28 06:50:55;;;;;;;9.88;5.10;;;2.50;99.90;;;2.62;71.15;99193.66;5001177;28;19936;-86
2023/11/28 06:53:23;;;;;;;7.60;4.95;;;2.50;99.90;;;2.55;70.95;99193.63;5001029;28;20077;-86
2023/11/28 06:55:50;;;;;;;8.38;4.82;;;2.40;99.90;;;2.60;70.90;99198.31;4970135;28;20089;-85
2023/11/28 06:58:18;;;;;;;7.95;5.25;;;2.40;99.90;;;2.52;70.27;99208.97;4940622;28;20042;-85
2023/11/28 07:00:47;;;;;;;8.23;4.80;;;2.40;99.90;;;2.51;70.21;99212.59;4986216;28;20100;-87
2023/11/28 07:03:15;;;;;;;7.97;4.88;;;2.40;99.90;;;2.46;70.08;99217.63;5018338;28;20046;-85
2023/11/28 07:05:45;;;;;;;7.57;4.72;;;2.30;99.90;;;2.33;70.19;99229.63;4953449;28;20088;-86
2023/11/28 07:08:12;;;;;;;8.35;4.80;;;2.20;99.90;;;2.28;70.98;99224.13;5017989;28;20053;-85
2023/11/28 07:10:40;;;;;;;8.70;5.13;;;2.20;99.90;;;2.29;70.59;99219.69;5021403;28;20460;-84
2023/11/28 07:13:07;;;;;;;9.75;5.10;;;2.20;99.90;;;2.32;70.77;99241.19;5017669;28;20053;-84
2023/11/28 07:15:35;;;;;;;8.35;4.93;;;2.20;99.90;;;2.28;71.34;99234.66;5003799;28;20046;-82
2023/11/28 07:18:04;;;;;;;8.48;4.90;;;2.20;99.90;;;2.36;72.40;99241.63;5024144;28;20077;-83
2023/11/28 07:20:32;;;;;;;8.10;4.68;;;2.20;99.90;;;2.39;71.99;99253.56;5002289;28;20108;-83
2023/11/28 07:23:00;;;;;;;8.10;5.15;;;2.20;99.90;;;2.46;72.08;99255.28;4989441;28;20042;-84
2023/11/28 07:25:27;;;;;;;7.40;4.63;;;2.30;99.90;;;2.51;71.42;99252.06;5006218;28;20076;-82
2023/11/28 07:27:55;;;;;;;7.70;4.50;;;2.30;99.90;;;2.62;71.80;99256.00;5004548;28;20108;-82
2023/11/28 07:30:25;;;;;;;7.88;4.95;;;2.40;99.90;;;2.65;71.62;99253.81;5022146;28;20038;-82
2023/11/28 07:32:52;;;;;;;7.57;4.68;;;2.50;99.90;;;2.66;71.04;99273.88;4987709;28;20046;-82
2023/11/28 07:35:22;;;;;;;7.60;4.75;;;2.50;99.90;;;2.57;70.08;99277.63;4988643;28;20056;-82
2023/11/28 07:37:49;;;;;;;9.57;5.40;;;2.40;99.90;;;2.60;70.39;99286.97;5005016;28;20046;-82
2023/11/28 07:40:17;;;;;;;10.07;4.70;;;2.40;99.90;;;2.67;70.54;99298.38;4996213;28;20049;-82
2023/11/28 07:42:44;;;;;;;10.38;4.65;;;2.40;99.90;;;2.71;70.34;99302.25;5008370;28;20046;-82
2023/11/28 07:45:12;;;;;;;7.90;4.80;;;2.50;99.90;;;2.62;70.23;99306.81;4998069;28;20050;-82
2023/11/28 07:47:40;;;;;;;7.20;4.45;;;2.40;99.90;;;2.66;70.95;99304.63;5017817;28;20140;-82
2023/11/28 07:50:09;;;;;;;8.25;4.55;;;2.40;99.90;;;2.65;69.50;99318.81;5005398;28;20046;-82
2023/11/28 07:52:38;;;;;;;8.27;4.72;;;2.40;99.90;;;2.48;69.45;99318.22;5004870;28;20132;-82
2023/11/28 07:55:08;;;;;;;8.30;4.78;;;2.30;99.90;;;2.46;70.08;99320.25;5023966;28;20050;-82
2023/11/28 07:57:36;;;;;;;8.52;5.20;;;2.20;99.90;;;2.50;70.67;99329.41;5020757;28;20054;-82
2023/11/28 08:00:07;;;;;;;8.00;5.13;;;2.30;99.90;;;2.54;70.46;99334.09;5008492;28;20045;-82
2023/11/28 08:02:40;;;;;;;8.20;5.25;;;2.30;99.90;;;2.57;70.56;99346.06;5008315;28;20105;-82
2023/11/28 08:05:09;;;;;;;8.25;4.82;;;2.40;99.90;;;2.69;71.15;99359.56;5007707;28;20497;-82
2023/11/28 08:07:37;;;;;;;7.35;4.93;;;2.40;99.90;;;2.71;71.07;99366.25;4989906;28;20041;-82
2023/11/28 08:10:10;;;;;;;13.15;5.72;;;2.40;99.90;;;2.74;70.82;99357.97;5024683;28;20058;-82
2023/11/28 08:12:38;;;;;;;10.50;5.38;;;2.50;99.90;;;2.75;71.03;99364.06;4992884;28;20133;-82
2023/11/28 08:15:08;;;;;;;7.70;4.82;;;2.50;99.90;;;2.79;70.65;99366.13;4991459;28;20049;-82
2023/11/28 08:17:35;;;;;;;9.27;5.93;;;2.50;99.90;;;2.82;70.76;99364.91;5024990;28;20057;-82
2023/11/28 08:20:04;;;;;;;12.07;5.55;;;2.60;99.90;;;2.83;70.63;99372.66;5021480;28;20038;-82
2023/11/28 08:22:31;;;;;;;10.52;5.47;;;2.60;99.90;;;2.81;70.57;99369.38;5023966;28;20054;-82
2023/11/28 08:25:00;;;;;;;8.38;5.15;;;2.50;99.90;;;2.78;70.30;99382.94;5023088;28;20069;-82
2023/11/28 08:27:28;;;;;;;8.95;5.13;;;2.50;99.90;;;2.67;69.41;99375.50;5021970;28;20053;-82
2023/11/28 08:29:55;;;;;;;9.75;5.05;;;2.40;99.90;;;2.66;70.21;99387.03;5004233;28;20038;-82
2023/11/28 08:32:23;;;;;;;9.35;5.10;;;2.40;99.90;;;2.72;69.71;99393.38;5003096;28;20050;-82
2023/11/28 08:34:52;;;;;;;9.93;5.00;;;2.40;99.90;;;2.69;69.83;99394.56;4971212;28;20054;-82
2023/11/28 08:37:19;;;;;;;7.38;4.43;;;2.40;99.90;;;2.56;68.71;99403.13;5004260;28;20081;-82
2023/11/28 08:39:48;;;;;;;7.50;4.43;;;2.40;99.90;;;2.51;69.42;99402.88;5022757;28;20129;-82
2023/11/28 08:42:17;;;;;;;8.43;4.70;;;2.30;99.90;;;2.50;70.21;99409.16;5005362;28;20049;-82
2023/11/28 08:44:45;;;;;;;8.30;4.40;;;2.30;99.90;;;2.53;70.14;99410.56;4989205;28;20058;-82
2023/11/28 08:47:13;;;;;;;9.98;4.50;;;2.30;99.90;;;2.52;70.00;99416.84;5004808;28;20049;-82
2023/11/28 08:49:45;;;;;;;8.82;4.10;;;2.30;99.90;;;2.54;69.94;99420.94;5001030;28;20034;-82
2023/11/28 08:52:14;;;;;;;9.68;4.70;;;2.40;99.90;;;2.60;70.84;99421.19;5023097;28;20417;-84
2023/11/28 08:54:43;;;;;;;8.73;4.50;;;2.40;99.90;;;2.65;70.21;99424.91;4935432;28;1365565;-84
2023/11/28 08:57:13;;;;;;;7.70;4.05;;;2.50;99.90;;;2.71;70.41;99423.34;5004742;28;20418;-82
2023/11/28 08:59:42;;;;;;;8.45;4.35;;;2.50;99.90;;;2.74;70.59;99436.94;5023927;28;20030;-82
2023/11/28 09:02:10;;;;;;;9.38;4.40;;;2.50;99.90;;;2.76;70.02;99442.03;5004541;28;20887;-81
2023/11/28 09:04:37;;;;;;;6.47;3.63;;;2.60;99.90;;;2.75;70.12;99450.94;5025092;28;20053;-81
2023/11/28 09:07:05;;;;;;;9.10;4.28;;;2.60;99.90;;;2.70;68.78;99455.94;5025451;28;20092;-81
2023/11/28 09:09:32;;;;;;;7.00;4.13;;;2.50;99.90;;;2.63;68.41;99455.84;5024041;28;20053;-81
2023/11/28 09:12:01;;;;;;;7.45;3.85;;;2.50;99.90;;;2.71;69.31;99460.19;4990416;28;20069;-81
2023/11/28 09:14:28;;;;;;;6.90;3.95;;;2.50;99.90;;;2.71;69.62;99463.63;5006399;28;20504;-81
2023/11/28 09:16:57;;;;;;;7.28;4.00;;;2.50;99.90;;;2.76;69.91;99473.63;5024200;28;20050;-81
2023/11/28 09:19:24;;;;;;;6.00;3.60;;;2.60;99.90;;;2.71;69.19;99475.97;5005445;28;20060;-82
2023/11/28 09:21:52;;;;;;;8.52;4.20;;;2.50;99.90;;;2.74;68.91;99480.88;4989490;28;20480;-82
2023/11/28 09:24:19;;;;;;;6.97;3.80;;;2.50;99.90;;;2.75;69.55;99482.53;5006345;28;20050;-81
2023/11/28 09:26:47;;;;;;;7.20;3.72;;;2.50;99.90;;;2.73;68.96;99482.72;4990200;28;20053;-82
2023/11/28 09:29:19;;;;;;;6.97;3.75;;;2.50;99.90;;;2.77;68.95;99475.25;5024642;28;20038;-82
2023/11/28 09:31:47;;;;;;;6.90;3.80;;;2.60;99.90;;;2.75;67.97;99490.41;4973529;28;20105;-82
2023/11/28 09:34:17;;;;;;;6.20;3.22;;;2.60;99.90;;;2.63;68.11;99490.06;5005496;28;20081;-82
2023/11/28 09:36:45;;;;;;;7.97;3.55;;;2.50;99.90;;;2.70;69.05;99498.88;5022276;28;20053;-82
2023/11/28 09:39:12;;;;;;;6.30;3.60;;;2.60;99.90;;;2.60;68.25;99487.00;5002107;28;20112;-82
2023/11/28 09:41:43;;;;;;;6.25;3.72;;;2.60;99.90;;;2.67;69.38;99491.31;5003382;28;20042;-82
2023/11/28 09:44:13;;;;;;;;;;;2.60;99.90;;;2.68;69.24;99505.28;5004436;28;20084;-82
2023/11/28 09:46:45;;;;;;;6.63;3.72;;;2.60;99.90;;;2.69;68.85;99499.06;5003929;28;19971;-83
2023/11/28 09:49:13;;;;;;;6.22;3.42;;;2.60;99.90;;;2.70;69.00;99506.75;5019871;28;20038;-82
2023/11/28 09:51:45;;;;;;;7.05;4.20;;;2.60;99.90;;;2.86;70.07;99503.09;5005743;28;20417;-82
2023/11/28 09:54:16;;;;;;;6.97;4.00;;;2.80;99.90;;;2.90;69.50;99509.63;4990342;28;20033;-82
2023/11/28 09:56:45;;;;;;;7.70;3.55;;;2.80;99.90;;;2.88;67.73;99505.53;5022396;28;20053;-82
2023/11/28 09:59:14;;;;;;;5.53;3.35;;;2.80;99.90;;;2.80;67.45;99507.28;4988191;28;20038;-82
2023/11/28 10:01:44;;;;;;;6.97;3.95;;;2.70;99.90;;;2.86;67.58;99504.91;5023952;28;20052;-82
2023/11/28 10:04:12;;;;;;;5.78;3.63;;;2.80;99.90;;;2.86;66.96;99511.00;5004757;28;20037;-82
2023/11/28 10:06:46;;;;;;;6.47;3.90;;;2.80;99.90;;;2.89;67.54;99517.72;5021626;28;20050;-82
2023/11/28 10:09:15;;;;;;;5.45;3.35;;;2.80;99.90;;;2.88;67.10;99522.19;5006947;28;20037;-82
2023/11/28 10:11:44;;;;;;;5.53;3.42;;;2.80;99.90;;;2.93;67.47;99511.06;5004358;28;20042;-82
2023/11/28 10:14:12;;;;;;;5.38;2.90;;;2.90;99.90;;;2.92;66.50;99518.16;5004591;28;20049;-82
2023/11/28 10:16:44;;;;;;;6.93;3.40;;;2.90;99.90;;;2.96;66.99;99527.31;5021679;28;20057;-82
2023/11/28 10:19:12;;;;;;;5.97;3.42;;;2.90;99.90;;;2.90;66.22;99524.63;4969868;28;20073;-82
2023/11/28 10:21:40;;;;;;;7.28;3.00;;;2.80;99.90;;;2.95;66.86;99530.97;5003919;28;20110;-82
2023/11/28 10:24:10;;;;;;;5.78;3.67;;;2.90;99.90;;;3.04;67.69;99529.03;5023988;28;20084;-82
2023/11/28 10:26:47;;;;;;;4.78;3.08;;;2.90;99.90;;;2.91;66.14;99528.88;5021034;28;20042;-82
2023/11/28 10:29:18;;;;;;;6.97;3.30;;;2.80;99.90;;;2.94;66.24;99529.31;5003097;28;20034;-86
2023/11/28 10:31:46;;;;;;;5.25;3.45;;;2.90;99.90;;;3.00;66.68;99533.03;5007387;28;20506;-82
2023/11/28 10:34:13;;;;;;;7.07;3.40;;;2.90;99.90;;;2.95;65.91;99538.03;5007974;28;20070;-82
2023/11/28 10:36:42;;;;;;;8.05;3.78;;;2.90;99.90;;;2.98;66.47;99546.41;5007552;28;20563;-82
2023/11/28 10:39:12;;;;;;;6.00;3.50;;;2.90;99.90;;;3.02;66.66;99541.56;5025722;28;20046;-82